sensor_id;sensor_type;location;lat;lon;timestamp;temperature;humidity
47336;DHT22;33068;51.990;5.926;2024-01-25T00:13:45;7.10;99.90
47336;DHT22;33068;51.990;5.926;2024-01-25T00:20:49;7.10;99.90
47336;DHT22;33068;51.990;5.926;2024-01-25T00:24:29;7.10;99.90
47336;DHT22;33068;51.990;5.926;2024-01-25T00:45:30;6.70;99.90
47336;DHT22;33068;51.990;5.926;2024-01-25T00:48:32;6.60;99.90
47336;DHT22;33068;51.990;5.926;2024-01-25T00:50:59;6.60;99.90
47336;DHT22;33068;51.990;5.926;2024-01-25T00:54:07;6.50;99.90
47336;DHT22;33068;51.990;5.926;2024-01-25T01:08:24;6.20;99.90
47336;DHT22;33068;51.990;5.926;2024-01-25T01:10:52;6.00;99.90
47336;DHT22;33068;51.990;5.926;2024-01-25T01:13:19;6.10;99.90
47336;DHT22;33068;51.990;5.926;2024-01-25T01:15:46;6.00;99.90
47336;DHT22;33068;51.990;5.926;2024-01-25T01:18:13;5.90;99.90
47336;DHT22;33068;51.990;5.926;2024-01-25T01:20:42;5.90;99.90
47336;DHT22;33068;51.990;5.926;2024-01-25T01:23:09;5.90;99.90
47336;DHT22;33068;51.990;5.926;2024-01-25T01:25:36;5.80;99.90
47336;DHT22;33068;51.990;5.926;2024-01-25T01:28:04;5.90;99.90
47336;DHT22;33068;51.990;5.926;2024-01-25T01:30:31;5.60;99.90
47336;DHT22;33068;51.990;5.926;2024-01-25T01:32:58;5.70;99.90
47336;DHT22;33068;51.990;5.926;2024-01-25T01:39:34;5.60;99.90
47336;DHT22;33068;51.990;5.926;2024-01-25T01:45:37;5.50;99.90
47336;DHT22;33068;51.990;5.926;2024-01-25T01:48:04;5.70;99.90
47336;DHT22;33068;51.990;5.926;2024-01-25T01:50:32;5.50;99.90
47336;DHT22;33068;51.990;5.926;2024-01-25T01:52:59;5.50;99.90
47336;DHT22;33068;51.990;5.926;2024-01-25T01:55:29;5.50;99.90
47336;DHT22;33068;51.990;5.926;2024-01-25T01:57:56;5.50;99.90
47336;DHT22;33068;51.990;5.926;2024-01-25T02:00:24;5.40;99.90
47336;DHT22;33068;51.990;5.926;2024-01-25T02:02:52;5.40;99.90
47336;DHT22;33068;51.990;5.926;2024-01-25T02:05:20;5.30;99.90
47336;DHT22;33068;51.990;5.926;2024-01-25T02:07:47;5.30;99.90
47336;DHT22;33068;51.990;5.926;2024-01-25T02:10:14;5.30;99.90
47336;DHT22;33068;51.990;5.926;2024-01-25T02:12:42;5.30;99.90
47336;DHT22;33068;51.990;5.926;2024-01-25T02:15:10;5.20;99.90
47336;DHT22;33068;51.990;5.926;2024-01-25T02:17:37;5.20;99.90
47336;DHT22;33068;51.990;5.926;2024-01-25T02:20:07;5.20;99.90
47336;DHT22;33068;51.990;5.926;2024-01-25T02:22:35;5.10;99.90
47336;DHT22;33068;51.990;5.926;2024-01-25T02:29:31;5.00;99.90
47336;DHT22;33068;51.990;5.926;2024-01-25T02:31:58;5.00;99.90
47336;DHT22;33068;51.990;5.926;2024-01-25T02:34:25;5.00;99.90
47336;DHT22;33068;51.990;5.926;2024-01-25T02:36:52;5.00;99.90
47336;DHT22;33068;51.990;5.926;2024-01-25T02:39:23;5.00;99.90
47336;DHT22;33068;51.990;5.926;2024-01-25T02:41:54;5.10;99.90
47336;DHT22;33068;51.990;5.926;2024-01-25T02:44:21;5.00;99.90
47336;DHT22;33068;51.990;5.926;2024-01-25T02:46:48;4.90;99.90
47336;DHT22;33068;51.990;5.926;2024-01-25T02:49:16;5.00;99.90
47336;DHT22;33068;51.990;5.926;2024-01-25T02:51:46;5.00;99.90
47336;DHT22;33068;51.990;5.926;2024-01-25T02:54:13;4.80;99.90
47336;DHT22;33068;51.990;5.926;2024-01-25T02:56:41;4.80;99.90
47336;DHT22;33068;51.990;5.926;2024-01-25T02:59:24;4.70;99.90
47336;DHT22;33068;51.990;5.926;2024-01-25T03:01:52;4.60;99.90
47336;DHT22;33068;51.990;5.926;2024-01-25T03:04:20;4.60;99.90
47336;DHT22;33068;51.990;5.926;2024-01-25T03:10:26;4.60;99.90
47336;DHT22;33068;51.990;5.926;2024-01-25T03:13:20;4.50;99.90
47336;DHT22;33068;51.990;5.926;2024-01-25T03:16:13;4.50;99.90
47336;DHT22;33068;51.990;5.926;2024-01-25T03:18:52;4.50;99.90
47336;DHT22;33068;51.990;5.926;2024-01-25T03:21:48;4.50;99.90
47336;DHT22;33068;51.990;5.926;2024-01-25T03:25:08;4.50;99.90
47336;DHT22;33068;51.990;5.926;2024-01-25T03:41:52;4.20;99.90
47336;DHT22;33068;51.990;5.926;2024-01-25T03:45:02;4.20;99.90
47336;DHT22;33068;51.990;5.926;2024-01-25T04:06:28;4.10;99.90
47336;DHT22;33068;51.990;5.926;2024-01-25T04:09:26;4.10;99.90
47336;DHT22;33068;51.990;5.926;2024-01-25T04:12:23;4.10;99.90
47336;DHT22;33068;51.990;5.926;2024-01-25T04:15:44;4.00;99.90
47336;DHT22;33068;51.990;5.926;2024-01-25T04:24:46;3.90;99.90
47336;DHT22;33068;51.990;5.926;2024-01-25T04:28:06;3.90;99.90
47336;DHT22;33068;51.990;5.926;2024-01-25T04:30:48;4.10;99.90
47336;DHT22;33068;51.990;5.926;2024-01-25T04:33:53;3.90;99.90
47336;DHT22;33068;51.990;5.926;2024-01-25T04:36:56;3.80;99.90
47336;DHT22;33068;51.990;5.926;2024-01-25T04:39:31;3.80;99.90
47336;DHT22;33068;51.990;5.926;2024-01-25T04:42:31;3.80;99.90
47336;DHT22;33068;51.990;5.926;2024-01-25T04:45:11;3.90;99.90
47336;DHT22;33068;51.990;5.926;2024-01-25T04:48:32;3.90;99.90
47336;DHT22;33068;51.990;5.926;2024-01-25T04:51:17;3.90;99.90
47336;DHT22;33068;51.990;5.926;2024-01-25T04:53:54;3.80;99.90
47336;DHT22;33068;51.990;5.926;2024-01-25T04:56:29;3.80;99.90
47336;DHT22;33068;51.990;5.926;2024-01-25T04:59:02;3.80;99.90
47336;DHT22;33068;51.990;5.926;2024-01-25T05:01:44;3.80;99.90
47336;DHT22;33068;51.990;5.926;2024-01-25T05:04:25;3.80;99.90
47336;DHT22;33068;51.990;5.926;2024-01-25T05:06:55;3.90;99.90
47336;DHT22;33068;51.990;5.926;2024-01-25T05:09:30;3.90;99.90
47336;DHT22;33068;51.990;5.926;2024-01-25T05:12:01;3.80;99.90
47336;DHT22;33068;51.990;5.926;2024-01-25T05:14:32;3.80;99.90
47336;DHT22;33068;51.990;5.926;2024-01-25T05:17:01;3.70;99.90
47336;DHT22;33068;51.990;5.926;2024-01-25T05:19:36;3.60;99.90
47336;DHT22;33068;51.990;5.926;2024-01-25T05:22:03;3.60;99.90
47336;DHT22;33068;51.990;5.926;2024-01-25T05:24:32;3.60;99.90
47336;DHT22;33068;51.990;5.926;2024-01-25T05:27:00;3.50;99.90
47336;DHT22;33068;51.990;5.926;2024-01-25T05:29:35;3.50;99.90
47336;DHT22;33068;51.990;5.926;2024-01-25T05:32:05;3.40;99.90
47336;DHT22;33068;51.990;5.926;2024-01-25T05:34:33;3.40;99.90
47336;DHT22;33068;51.990;5.926;2024-01-25T05:37:01;3.40;99.90
47336;DHT22;33068;51.990;5.926;2024-01-25T05:39:33;3.30;99.90
47336;DHT22;33068;51.990;5.926;2024-01-25T05:42:01;3.40;99.90
47336;DHT22;33068;51.990;5.926;2024-01-25T05:44:30;3.40;99.90
47336;DHT22;33068;51.990;5.926;2024-01-25T05:46:58;3.30;99.90
47336;DHT22;33068;51.990;5.926;2024-01-25T05:49:28;3.20;99.90
47336;DHT22;33068;51.990;5.926;2024-01-25T05:52:01;3.20;99.90
47336;DHT22;33068;51.990;5.926;2024-01-25T05:54:28;3.10;99.90
47336;DHT22;33068;51.990;5.926;2024-01-25T05:56:55;3.10;99.90
47336;DHT22;33068;51.990;5.926;2024-01-25T05:59:23;3.10;99.90
47336;DHT22;33068;51.990;5.926;2024-01-25T06:01:50;3.10;99.90
47336;DHT22;33068;51.990;5.926;2024-01-25T06:04:18;3.10;99.90
47336;DHT22;33068;51.990;5.926;2024-01-25T06:06:46;3.10;99.90
47336;DHT22;33068;51.990;5.926;2024-01-25T06:09:40;3.10;99.90
47336;DHT22;33068;51.990;5.926;2024-01-25T06:12:18;3.10;99.90
47336;DHT22;33068;51.990;5.926;2024-01-25T06:14:47;3.20;99.90
47336;DHT22;33068;51.990;5.926;2024-01-25T06:17:14;3.10;99.90
47336;DHT22;33068;51.990;5.926;2024-01-25T06:19:43;3.20;99.90
47336;DHT22;33068;51.990;5.926;2024-01-25T06:22:10;3.10;99.90
47336;DHT22;33068;51.990;5.926;2024-01-25T06:24:38;3.10;99.90
47336;DHT22;33068;51.990;5.926;2024-01-25T06:27:17;3.20;99.90
47336;DHT22;33068;51.990;5.926;2024-01-25T06:29:44;3.30;99.90
47336;DHT22;33068;51.990;5.926;2024-01-25T06:32:12;3.30;99.90
47336;DHT22;33068;51.990;5.926;2024-01-25T06:34:39;3.30;99.90
47336;DHT22;33068;51.990;5.926;2024-01-25T06:37:14;3.20;99.90
47336;DHT22;33068;51.990;5.926;2024-01-25T06:39:52;3.20;99.90
47336;DHT22;33068;51.990;5.926;2024-01-25T06:42:23;3.20;99.90
47336;DHT22;33068;51.990;5.926;2024-01-25T06:45:05;3.20;99.90
47336;DHT22;33068;51.990;5.926;2024-01-25T06:47:32;3.10;99.90
47336;DHT22;33068;51.990;5.926;2024-01-25T06:50:13;3.20;99.90
47336;DHT22;33068;51.990;5.926;2024-01-25T06:52:42;3.30;99.90
47336;DHT22;33068;51.990;5.926;2024-01-25T06:55:14;3.30;99.90
47336;DHT22;33068;51.990;5.926;2024-01-25T06:58:01;3.30;99.90
47336;DHT22;33068;51.990;5.926;2024-01-25T07:00:45;3.30;99.90
47336;DHT22;33068;51.990;5.926;2024-01-25T07:03:25;3.30;99.90
47336;DHT22;33068;51.990;5.926;2024-01-25T07:06:21;3.30;99.90
47336;DHT22;33068;51.990;5.926;2024-01-25T07:09:26;3.30;99.90
47336;DHT22;33068;51.990;5.926;2024-01-25T07:12:15;3.30;99.90
47336;DHT22;33068;51.990;5.926;2024-01-25T07:14:51;3.30;99.90
47336;DHT22;33068;51.990;5.926;2024-01-25T07:17:22;3.30;99.90
47336;DHT22;33068;51.990;5.926;2024-01-25T07:19:57;3.30;99.90
47336;DHT22;33068;51.990;5.926;2024-01-25T07:22:45;3.20;99.90
47336;DHT22;33068;51.990;5.926;2024-01-25T07:28:38;3.30;99.90
47336;DHT22;33068;51.990;5.926;2024-01-25T07:31:15;3.30;99.90
47336;DHT22;33068;51.990;5.926;2024-01-25T07:33:42;3.30;99.90
47336;DHT22;33068;51.990;5.926;2024-01-25T07:36:23;3.30;99.90
47336;DHT22;33068;51.990;5.926;2024-01-25T07:39:11;3.30;99.90
47336;DHT22;33068;51.990;5.926;2024-01-25T07:41:59;3.30;99.90
47336;DHT22;33068;51.990;5.926;2024-01-25T07:44:51;3.20;99.90
47336;DHT22;33068;51.990;5.926;2024-01-25T07:47:23;3.20;99.90
47336;DHT22;33068;51.990;5.926;2024-01-25T07:49:50;3.30;99.90
47336;DHT22;33068;51.990;5.926;2024-01-25T07:52:17;3.30;99.90
47336;DHT22;33068;51.990;5.926;2024-01-25T07:54:45;3.40;99.90
47336;DHT22;33068;51.990;5.926;2024-01-25T07:57:20;3.40;99.90
47336;DHT22;33068;51.990;5.926;2024-01-25T08:00:01;3.50;99.90
47336;DHT22;33068;51.990;5.926;2024-01-25T08:02:31;3.60;99.90
47336;DHT22;33068;51.990;5.926;2024-01-25T08:05:01;3.60;99.90
47336;DHT22;33068;51.990;5.926;2024-01-25T08:07:35;3.60;99.90
47336;DHT22;33068;51.990;5.926;2024-01-25T08:10:12;3.70;99.90
47336;DHT22;33068;51.990;5.926;2024-01-25T08:12:57;3.70;99.90
47336;DHT22;33068;51.990;5.926;2024-01-25T08:15:36;3.70;99.90
47336;DHT22;33068;51.990;5.926;2024-01-25T08:18:10;3.80;99.90
47336;DHT22;33068;51.990;5.926;2024-01-25T08:21:29;3.80;99.90
47336;DHT22;33068;51.990;5.926;2024-01-25T08:24:14;3.90;99.90
47336;DHT22;33068;51.990;5.926;2024-01-25T08:26:58;3.90;99.90
47336;DHT22;33068;51.990;5.926;2024-01-25T08:47:38;3.90;99.90
47336;DHT22;33068;51.990;5.926;2024-01-25T08:50:07;4.10;99.90
47336;DHT22;33068;51.990;5.926;2024-01-25T08:52:36;4.10;99.90
47336;DHT22;33068;51.990;5.926;2024-01-25T08:55:04;4.20;99.90
47336;DHT22;33068;51.990;5.926;2024-01-25T08:57:31;4.20;99.90
47336;DHT22;33068;51.990;5.926;2024-01-25T08:59:58;4.30;99.90
47336;DHT22;33068;51.990;5.926;2024-01-25T09:02:43;4.40;99.90
47336;DHT22;33068;51.990;5.926;2024-01-25T09:05:23;4.50;99.90
47336;DHT22;33068;51.990;5.926;2024-01-25T09:07:54;4.50;99.90
47336;DHT22;33068;51.990;5.926;2024-01-25T09:10:21;4.60;99.90
47336;DHT22;33068;51.990;5.926;2024-01-25T09:12:48;4.60;99.90
47336;DHT22;33068;51.990;5.926;2024-01-25T09:15:18;4.90;99.90
47336;DHT22;33068;51.990;5.926;2024-01-25T09:17:48;4.70;99.90
47336;DHT22;33068;51.990;5.926;2024-01-25T09:23:39;4.80;99.90
47336;DHT22;33068;51.990;5.926;2024-01-25T09:26:06;4.80;99.90
47336;DHT22;33068;51.990;5.926;2024-01-25T09:28:37;4.90;99.90
47336;DHT22;33068;51.990;5.926;2024-01-25T09:31:19;5.00;99.90
47336;DHT22;33068;51.990;5.926;2024-01-25T09:34:11;5.10;99.90
47336;DHT22;33068;51.990;5.926;2024-01-25T09:37:37;5.10;99.90
47336;DHT22;33068;51.990;5.926;2024-01-25T09:40:07;5.10;99.90
47336;DHT22;33068;51.990;5.926;2024-01-25T09:42:35;5.20;99.90
47336;DHT22;33068;51.990;5.926;2024-01-25T09:45:11;5.20;99.90
47336;DHT22;33068;51.990;5.926;2024-01-25T09:48:28;5.30;99.90
47336;DHT22;33068;51.990;5.926;2024-01-25T09:51:20;5.30;99.90
47336;DHT22;33068;51.990;5.926;2024-01-25T09:58:30;5.40;99.90
47336;DHT22;33068;51.990;5.926;2024-01-25T10:01:17;5.50;99.90
47336;DHT22;33068;51.990;5.926;2024-01-25T10:03:45;5.50;99.90
47336;DHT22;33068;51.990;5.926;2024-01-25T10:10:04;5.60;99.90
47336;DHT22;33068;51.990;5.926;2024-01-25T10:12:55;5.70;99.90
47336;DHT22;33068;51.990;5.926;2024-01-25T10:16:16;5.80;99.90
47336;DHT22;33068;51.990;5.926;2024-01-25T10:21:10;6.00;99.90
47336;DHT22;33068;51.990;5.926;2024-01-25T10:23:21;6.00;99.90
47336;DHT22;33068;51.990;5.926;2024-01-25T10:25:59;6.10;99.90
47336;DHT22;33068;51.990;5.926;2024-01-25T10:28:40;6.20;99.90
47336;DHT22;33068;51.990;5.926;2024-01-25T10:31:14;6.50;99.90
47336;DHT22;33068;51.990;5.926;2024-01-25T10:48:24;6.80;99.90
47336;DHT22;33068;51.990;5.926;2024-01-25T10:50:53;6.90;99.90
47336;DHT22;33068;51.990;5.926;2024-01-25T11:38:18;7.90;99.90
47336;DHT22;33068;51.990;5.926;2024-01-25T11:41:12;7.90;99.90
47336;DHT22;33068;51.990;5.926;2024-01-25T11:52:32;8.30;99.90
47336;DHT22;33068;51.990;5.926;2024-01-25T12:10:49;8.50;99.90
47336;DHT22;33068;51.990;5.926;2024-01-25T12:13:39;8.40;99.90
47336;DHT22;33068;51.990;5.926;2024-01-25T12:16:08;8.40;99.90
47336;DHT22;33068;51.990;5.926;2024-01-25T12:18:36;8.40;99.90
47336;DHT22;33068;51.990;5.926;2024-01-25T12:21:04;8.40;99.90
47336;DHT22;33068;51.990;5.926;2024-01-25T12:23:32;8.40;99.90
47336;DHT22;33068;51.990;5.926;2024-01-25T12:26:03;8.50;99.90
47336;DHT22;33068;51.990;5.926;2024-01-25T12:28:31;8.50;99.90
47336;DHT22;33068;51.990;5.926;2024-01-25T12:31:08;8.50;99.90
47336;DHT22;33068;51.990;5.926;2024-01-25T12:33:35;8.50;99.90
47336;DHT22;33068;51.990;5.926;2024-01-25T12:40:32;8.50;99.90
47336;DHT22;33068;51.990;5.926;2024-01-25T12:43:40;8.60;99.90
47336;DHT22;33068;51.990;5.926;2024-01-25T12:46:07;8.60;99.90
47336;DHT22;33068;51.990;5.926;2024-01-25T12:48:35;8.50;99.90
47336;DHT22;33068;51.990;5.926;2024-01-25T12:51:02;8.50;99.90
47336;DHT22;33068;51.990;5.926;2024-01-25T12:53:30;8.60;99.90
47336;DHT22;33068;51.990;5.926;2024-01-25T12:56:15;8.70;99.90
47336;DHT22;33068;51.990;5.926;2024-01-25T12:59:00;8.90;99.90
47336;DHT22;33068;51.990;5.926;2024-01-25T13:01:27;9.10;99.90
47336;DHT22;33068;51.990;5.926;2024-01-25T13:03:54;9.10;99.90
47336;DHT22;33068;51.990;5.926;2024-01-25T13:12:21;9.20;99.90
47336;DHT22;33068;51.990;5.926;2024-01-25T13:14:49;9.20;99.90
47336;DHT22;33068;51.990;5.926;2024-01-25T13:17:17;9.20;99.90
47336;DHT22;33068;51.990;5.926;2024-01-25T13:19:47;9.20;99.90
47336;DHT22;33068;51.990;5.926;2024-01-25T13:22:14;9.10;99.90
47336;DHT22;33068;51.990;5.926;2024-01-25T13:24:42;9.10;99.90
47336;DHT22;33068;51.990;5.926;2024-01-25T13:27:10;9.10;99.90
47336;DHT22;33068;51.990;5.926;2024-01-25T13:29:37;9.10;99.90
47336;DHT22;33068;51.990;5.926;2024-01-25T13:32:07;9.00;99.90
47336;DHT22;33068;51.990;5.926;2024-01-25T13:34:34;9.00;99.90
47336;DHT22;33068;51.990;5.926;2024-01-25T13:37:01;8.90;99.90
47336;DHT22;33068;51.990;5.926;2024-01-25T13:39:29;8.90;99.90
47336;DHT22;33068;51.990;5.926;2024-01-25T13:41:56;8.80;99.90
47336;DHT22;33068;51.990;5.926;2024-01-25T13:44:23;8.80;99.90
47336;DHT22;33068;51.990;5.926;2024-01-25T13:46:50;8.80;99.90
47336;DHT22;33068;51.990;5.926;2024-01-25T13:49:19;8.70;99.90
47336;DHT22;33068;51.990;5.926;2024-01-25T13:51:46;8.70;99.90
47336;DHT22;33068;51.990;5.926;2024-01-25T13:54:13;8.70;99.90
47336;DHT22;33068;51.990;5.926;2024-01-25T13:56:40;8.70;99.90
47336;DHT22;33068;51.990;5.926;2024-01-25T13:59:07;8.80;99.90
47336;DHT22;33068;51.990;5.926;2024-01-25T14:01:34;8.60;99.90
47336;DHT22;33068;51.990;5.926;2024-01-25T14:04:02;8.70;99.90
47336;DHT22;33068;51.990;5.926;2024-01-25T14:06:31;8.60;99.90
47336;DHT22;33068;51.990;5.926;2024-01-25T14:08:58;8.50;99.90
47336;DHT22;33068;51.990;5.926;2024-01-25T14:11:25;8.60;99.90
47336;DHT22;33068;51.990;5.926;2024-01-25T14:13:53;8.60;99.90
47336;DHT22;33068;51.990;5.926;2024-01-25T14:16:20;8.60;99.90
47336;DHT22;33068;51.990;5.926;2024-01-25T14:18:47;8.60;99.90
47336;DHT22;33068;51.990;5.926;2024-01-25T14:21:14;8.50;99.90
47336;DHT22;33068;51.990;5.926;2024-01-25T14:23:43;8.60;99.90
47336;DHT22;33068;51.990;5.926;2024-01-25T14:26:10;8.50;99.90
47336;DHT22;33068;51.990;5.926;2024-01-25T14:28:40;8.50;99.90
47336;DHT22;33068;51.990;5.926;2024-01-25T14:31:07;8.50;99.90
47336;DHT22;33068;51.990;5.926;2024-01-25T14:33:34;8.50;99.90
47336;DHT22;33068;51.990;5.926;2024-01-25T14:36:01;8.50;99.90
47336;DHT22;33068;51.990;5.926;2024-01-25T14:38:29;8.40;99.90
47336;DHT22;33068;51.990;5.926;2024-01-25T14:40:58;8.30;99.90
47336;DHT22;33068;51.990;5.926;2024-01-25T14:43:25;8.30;99.90
47336;DHT22;33068;51.990;5.926;2024-01-25T14:45:52;8.20;99.90
47336;DHT22;33068;51.990;5.926;2024-01-25T14:48:19;8.10;99.90
47336;DHT22;33068;51.990;5.926;2024-01-25T14:50:46;8.10;99.90
47336;DHT22;33068;51.990;5.926;2024-01-25T14:53:13;8.10;99.90
47336;DHT22;33068;51.990;5.926;2024-01-25T14:55:43;7.90;99.90
47336;DHT22;33068;51.990;5.926;2024-01-25T14:58:12;8.00;99.90
47336;DHT22;33068;51.990;5.926;2024-01-25T15:00:40;8.00;99.90
47336;DHT22;33068;51.990;5.926;2024-01-25T15:03:07;8.00;99.90
47336;DHT22;33068;51.990;5.926;2024-01-25T15:05:34;7.90;99.90
47336;DHT22;33068;51.990;5.926;2024-01-25T15:08:03;8.00;99.90
47336;DHT22;33068;51.990;5.926;2024-01-25T15:10:30;8.00;99.90
47336;DHT22;33068;51.990;5.926;2024-01-25T15:12:58;8.00;99.90
47336;DHT22;33068;51.990;5.926;2024-01-25T15:15:26;8.00;99.90
47336;DHT22;33068;51.990;5.926;2024-01-25T15:17:56;7.90;99.90
47336;DHT22;33068;51.990;5.926;2024-01-25T15:20:23;7.90;99.90
47336;DHT22;33068;51.990;5.926;2024-01-25T15:22:51;7.90;99.90
47336;DHT22;33068;51.990;5.926;2024-01-25T15:25:18;7.90;99.90
47336;DHT22;33068;51.990;5.926;2024-01-25T15:27:45;7.90;99.90
47336;DHT22;33068;51.990;5.926;2024-01-25T15:30:12;7.90;99.90
47336;DHT22;33068;51.990;5.926;2024-01-25T15:32:41;7.90;99.90
47336;DHT22;33068;51.990;5.926;2024-01-25T15:35:12;7.90;99.90
47336;DHT22;33068;51.990;5.926;2024-01-25T15:37:39;7.80;99.90
47336;DHT22;33068;51.990;5.926;2024-01-25T15:40:08;7.90;99.90
47336;DHT22;33068;51.990;5.926;2024-01-25T15:42:38;7.90;99.90
47336;DHT22;33068;51.990;5.926;2024-01-25T15:45:06;7.80;99.90
47336;DHT22;33068;51.990;5.926;2024-01-25T15:47:34;7.80;99.90
47336;DHT22;33068;51.990;5.926;2024-01-25T15:50:03;7.80;99.90
47336;DHT22;33068;51.990;5.926;2024-01-25T15:52:31;7.70;99.90
47336;DHT22;33068;51.990;5.926;2024-01-25T15:54:58;7.70;99.90
47336;DHT22;33068;51.990;5.926;2024-01-25T15:57:26;7.70;99.90
47336;DHT22;33068;51.990;5.926;2024-01-25T15:59:53;7.60;99.90
47336;DHT22;33068;51.990;5.926;2024-01-25T16:02:19;7.60;99.90
47336;DHT22;33068;51.990;5.926;2024-01-25T16:04:46;7.60;99.90
47336;DHT22;33068;51.990;5.926;2024-01-25T16:07:15;7.60;99.90
47336;DHT22;33068;51.990;5.926;2024-01-25T16:09:42;7.60;99.90
47336;DHT22;33068;51.990;5.926;2024-01-25T16:12:09;7.60;99.90
47336;DHT22;33068;51.990;5.926;2024-01-25T16:14:36;7.60;99.90
47336;DHT22;33068;51.990;5.926;2024-01-25T16:17:03;7.60;99.90
47336;DHT22;33068;51.990;5.926;2024-01-25T16:19:31;7.60;99.90
47336;DHT22;33068;51.990;5.926;2024-01-25T16:21:58;7.60;99.90
47336;DHT22;33068;51.990;5.926;2024-01-25T16:24:26;7.60;99.90
47336;DHT22;33068;51.990;5.926;2024-01-25T16:26:53;7.50;99.90
47336;DHT22;33068;51.990;5.926;2024-01-25T16:29:21;7.60;99.90
47336;DHT22;33068;51.990;5.926;2024-01-25T16:31:48;7.60;99.90
47336;DHT22;33068;51.990;5.926;2024-01-25T16:38:14;7.60;99.90
47336;DHT22;33068;51.990;5.926;2024-01-25T16:40:43;7.60;99.90
47336;DHT22;33068;51.990;5.926;2024-01-25T16:43:09;7.60;99.90
47336;DHT22;33068;51.990;5.926;2024-01-25T16:45:38;7.60;99.90
47336;DHT22;33068;51.990;5.926;2024-01-25T16:48:06;7.60;99.90
47336;DHT22;33068;51.990;5.926;2024-01-25T16:50:33;7.60;99.90
47336;DHT22;33068;51.990;5.926;2024-01-25T16:53:00;7.60;99.90
47336;DHT22;33068;51.990;5.926;2024-01-25T16:55:27;7.60;99.90
47336;DHT22;33068;51.990;5.926;2024-01-25T16:57:56;7.60;99.90
47336;DHT22;33068;51.990;5.926;2024-01-25T17:00:23;7.60;99.90
47336;DHT22;33068;51.990;5.926;2024-01-25T17:02:51;7.60;99.90
47336;DHT22;33068;51.990;5.926;2024-01-25T17:05:19;7.60;99.90
47336;DHT22;33068;51.990;5.926;2024-01-25T17:07:46;7.60;99.90
47336;DHT22;33068;51.990;5.926;2024-01-25T17:10:14;7.60;99.90
47336;DHT22;33068;51.990;5.926;2024-01-25T17:12:43;7.60;99.90
47336;DHT22;33068;51.990;5.926;2024-01-25T17:15:12;7.60;99.90
47336;DHT22;33068;51.990;5.926;2024-01-25T17:17:40;7.60;99.90
47336;DHT22;33068;51.990;5.926;2024-01-25T17:20:07;7.70;99.90
47336;DHT22;33068;51.990;5.926;2024-01-25T17:22:34;7.70;99.90
47336;DHT22;33068;51.990;5.926;2024-01-25T17:25:07;7.70;99.90
47336;DHT22;33068;51.990;5.926;2024-01-25T17:27:35;7.70;99.90
47336;DHT22;33068;51.990;5.926;2024-01-25T17:30:03;7.70;99.90
47336;DHT22;33068;51.990;5.926;2024-01-25T17:32:31;7.70;99.90
47336;DHT22;33068;51.990;5.926;2024-01-25T17:34:59;7.70;99.90
47336;DHT22;33068;51.990;5.926;2024-01-25T17:37:26;7.80;99.90
47336;DHT22;33068;51.990;5.926;2024-01-25T17:39:53;7.80;99.90
47336;DHT22;33068;51.990;5.926;2024-01-25T17:42:20;7.80;99.90
47336;DHT22;33068;51.990;5.926;2024-01-25T17:44:48;7.80;99.90
47336;DHT22;33068;51.990;5.926;2024-01-25T17:47:15;7.90;99.90
47336;DHT22;33068;51.990;5.926;2024-01-25T17:49:43;7.90;99.90
47336;DHT22;33068;51.990;5.926;2024-01-25T17:52:10;7.90;99.90
47336;DHT22;33068;51.990;5.926;2024-01-25T17:54:38;8.00;99.90
47336;DHT22;33068;51.990;5.926;2024-01-25T17:57:05;8.00;99.90
47336;DHT22;33068;51.990;5.926;2024-01-25T17:59:32;8.00;99.90
47336;DHT22;33068;51.990;5.926;2024-01-25T18:01:59;8.00;99.90
47336;DHT22;33068;51.990;5.926;2024-01-25T18:04:28;8.00;99.90
47336;DHT22;33068;51.990;5.926;2024-01-25T18:06:57;8.00;99.90
47336;DHT22;33068;51.990;5.926;2024-01-25T18:09:23;8.20;99.90
47336;DHT22;33068;51.990;5.926;2024-01-25T18:11:50;8.00;99.90
47336;DHT22;33068;51.990;5.926;2024-01-25T18:14:18;8.00;99.90
47336;DHT22;33068;51.990;5.926;2024-01-25T18:16:45;8.10;99.90
47336;DHT22;33068;51.990;5.926;2024-01-25T18:19:12;8.20;99.90
47336;DHT22;33068;51.990;5.926;2024-01-25T18:21:40;8.10;99.90
47336;DHT22;33068;51.990;5.926;2024-01-25T18:24:09;8.20;99.90
47336;DHT22;33068;51.990;5.926;2024-01-25T18:26:37;8.20;99.90
47336;DHT22;33068;51.990;5.926;2024-01-25T18:29:03;8.20;99.90
47336;DHT22;33068;51.990;5.926;2024-01-25T18:31:30;8.20;99.90
47336;DHT22;33068;51.990;5.926;2024-01-25T18:33:57;8.20;99.90
47336;DHT22;33068;51.990;5.926;2024-01-25T18:36:24;8.30;99.90
47336;DHT22;33068;51.990;5.926;2024-01-25T18:38:52;8.30;99.90
47336;DHT22;33068;51.990;5.926;2024-01-25T18:41:20;8.30;99.90
47336;DHT22;33068;51.990;5.926;2024-01-25T18:43:47;8.30;99.90
47336;DHT22;33068;51.990;5.926;2024-01-25T18:46:14;8.40;99.90
47336;DHT22;33068;51.990;5.926;2024-01-25T18:48:41;8.50;99.90
47336;DHT22;33068;51.990;5.926;2024-01-25T18:51:08;8.40;99.90
47336;DHT22;33068;51.990;5.926;2024-01-25T18:53:36;8.40;99.90
47336;DHT22;33068;51.990;5.926;2024-01-25T18:56:04;8.40;99.90
47336;DHT22;33068;51.990;5.926;2024-01-25T18:58:33;8.50;99.90
47336;DHT22;33068;51.990;5.926;2024-01-25T19:01:01;8.50;99.90
47336;DHT22;33068;51.990;5.926;2024-01-25T19:03:29;8.60;99.90
47336;DHT22;33068;51.990;5.926;2024-01-25T19:05:57;8.50;99.90
47336;DHT22;33068;51.990;5.926;2024-01-25T19:08:25;8.60;99.90
47336;DHT22;33068;51.990;5.926;2024-01-25T19:10:53;8.60;99.90
47336;DHT22;33068;51.990;5.926;2024-01-25T19:13:20;8.70;99.90
47336;DHT22;33068;51.990;5.926;2024-01-25T19:15:49;8.70;99.90
47336;DHT22;33068;51.990;5.926;2024-01-25T19:18:16;8.70;99.90
47336;DHT22;33068;51.990;5.926;2024-01-25T19:20:43;8.70;99.90
47336;DHT22;33068;51.990;5.926;2024-01-25T19:23:11;8.70;99.90
47336;DHT22;33068;51.990;5.926;2024-01-25T19:25:38;8.70;99.90
47336;DHT22;33068;51.990;5.926;2024-01-25T19:28:08;8.70;99.90
47336;DHT22;33068;51.990;5.926;2024-01-25T19:30:35;8.70;99.90
47336;DHT22;33068;51.990;5.926;2024-01-25T19:33:04;8.80;99.90
47336;DHT22;33068;51.990;5.926;2024-01-25T19:35:31;8.80;99.90
47336;DHT22;33068;51.990;5.926;2024-01-25T19:37:58;8.80;99.90
47336;DHT22;33068;51.990;5.926;2024-01-25T19:40:25;8.80;99.90
47336;DHT22;33068;51.990;5.926;2024-01-25T19:42:52;8.80;99.90
47336;DHT22;33068;51.990;5.926;2024-01-25T19:45:19;8.90;99.90
47336;DHT22;33068;51.990;5.926;2024-01-25T19:47:46;8.90;99.90
47336;DHT22;33068;51.990;5.926;2024-01-25T19:50:15;9.00;99.90
47336;DHT22;33068;51.990;5.926;2024-01-25T19:52:43;8.90;99.90
47336;DHT22;33068;51.990;5.926;2024-01-25T19:55:11;8.90;99.90
47336;DHT22;33068;51.990;5.926;2024-01-25T19:57:39;9.00;99.90
47336;DHT22;33068;51.990;5.926;2024-01-25T20:00:08;9.00;99.90
47336;DHT22;33068;51.990;5.926;2024-01-25T20:02:35;9.00;99.90
47336;DHT22;33068;51.990;5.926;2024-01-25T20:05:03;9.00;99.90
47336;DHT22;33068;51.990;5.926;2024-01-25T20:07:32;9.00;99.90
47336;DHT22;33068;51.990;5.926;2024-01-25T20:10:01;9.10;99.90
47336;DHT22;33068;51.990;5.926;2024-01-25T20:12:28;9.10;99.90
47336;DHT22;33068;51.990;5.926;2024-01-25T20:14:55;9.10;99.90